Time;durP1;ratioP1;P1;durP2;ratioP2;P2;SDS_P1;SDS_P2;PMS_P1;PMS_P2;Temp;Humidity;BMP_temperature;BMP_pressure;BME280_temperature;BME280_humidity;BME280_pressure;Samples;Min_cycle;Max_cycle;Signal;HPM_P1;HPM_P2
2022/07/31 00:00:45;;;;;;;1.00;0.90;;;;;;;17.11;92.13;98016.50;1618899;88;25769;-56
2022/07/31 00:03:11;;;;;;;0.70;0.70;;;;;;;17.09;91.93;98016.88;1617290;88;27415;-56
2022/07/31 00:05:38;;;;;;;2.02;0.90;;;;;;;17.10;91.91;98017.08;1616958;88;25783;-56
2022/07/31 00:08:05;;;;;;;0.70;0.68;;;;;;;17.11;91.93;98015.11;1616845;88;25444;-56
2022/07/31 00:10:31;;;;;;;0.93;0.80;;;;;;;17.11;91.81;98010.38;1616741;88;25746;-56
2022/07/31 00:12:58;;;;;;;3.50;1.02;;;;;;;17.12;91.66;98014.73;1616894;88;25684;-56
2022/07/31 00:15:24;;;;;;;3.65;1.00;;;;;;;17.10;91.60;98012.92;1616726;88;27461;-57
2022/07/31 00:17:50;;;;;;;1.15;0.95;;;;;;;17.12;91.90;98012.55;1616826;88;25659;-57
2022/07/31 00:20:17;;;;;;;0.80;0.80;;;;;;;17.10;91.68;98003.84;1617099;88;25740;-57
2022/07/31 00:22:46;;;;;;;1.67;1.00;;;;;;;17.11;91.69;98004.04;1616905;88;25694;-57
2022/07/31 00:25:14;;;;;;;2.40;0.90;;;;;;;17.09;91.88;98003.61;1617150;88;25451;-56
2022/07/31 00:27:41;;;;;;;2.80;0.85;;;;;;;17.09;92.12;98003.03;1617025;88;27394;-56
2022/07/31 00:30:11;;;;;;;1.35;0.80;;;;;;;17.08;92.00;98001.44;1617227;88;25476;-58
2022/07/31 00:32:38;;;;;;;1.60;1.05;;;;;;;17.07;91.84;98001.21;1617097;88;25643;-56
2022/07/31 00:35:05;;;;;;;0.70;0.70;;;;;;;17.10;92.06;97996.92;1617129;88;26297;-57
2022/07/31 00:37:37;;;;;;;1.75;0.95;;;;;;;17.10;91.88;98000.46;1617079;88;25702;-57
2022/07/31 00:40:09;;;;;;;3.90;1.10;;;;;;;17.11;91.68;97997.13;1617117;88;27288;-58
2022/07/31 00:42:36;;;;;;;1.12;0.90;;;;;;;17.13;91.84;97994.78;1617062;88;25514;-57
2022/07/31 00:45:03;;;;;;;1.70;1.07;;;;;;;17.10;91.83;97995.53;1616739;88;25695;-58
2022/07/31 00:47:30;;;;;;;1.07;1.00;;;;;;;17.07;91.59;97990.14;1616961;88;26594;-57
2022/07/31 00:49:57;;;;;;;2.33;1.20;;;;;;;17.04;91.85;97991.66;1617070;88;25775;-58
2022/07/31 00:52:24;;;;;;;2.02;1.40;;;;;;;17.06;91.87;97996.83;1616781;88;27359;-56
2022/07/31 00:54:50;;;;;;;1.32;1.22;;;;;;;17.08;91.82;97999.25;1616852;88;25736;-55
2022/07/31 00:57:16;;;;;;;1.25;1.15;;;;;;;17.05;91.86;97993.28;1617210;88;25509;-56
2022/07/31 00:59:43;;;;;;;1.42;1.32;;;;;;;17.05;91.95;97994.66;1616923;88;25805;-55
2022/07/31 01:02:09;;;;;;;3.05;1.37;;;;;;;17.05;92.11;97993.28;1617582;88;25665;-56
2022/07/31 01:04:35;;;;;;;2.00;1.40;;;;;;;17.08;92.03;97995.91;1617365;88;27694;-56
2022/07/31 01:07:03;;;;;;;1.55;1.45;;;;;;;17.11;92.16;97999.31;1616916;88;27168;-56
2022/07/31 01:09:30;;;;;;;1.60;1.40;;;;;;;17.10;92.02;97996.92;1617268;88;25462;-56
2022/07/31 01:12:19;;;;;;;3.02;1.52;;;;;;;17.11;92.09;98004.04;1617083;88;25750;-56
2022/07/31 01:14:56;;;;;;;1.90;1.62;;;;;;;17.13;92.17;98003.09;1616836;88;25523;-56
2022/07/31 01:17:25;;;;;;;2.08;1.70;;;;;;;17.12;92.14;98002.86;1617031;88;28615;-56
2022/07/31 01:19:53;;;;;;;3.67;1.60;;;;;;;17.14;92.25;98006.87;1617107;88;25781;-56
2022/07/31 01:22:46;;;;;;;1.60;1.50;;;;;;;17.12;92.35;98011.97;1617334;88;25472;-56
2022/07/31 01:25:39;;;;;;;2.02;1.82;;;;;;;17.11;92.21;98009.58;1616057;88;25776;-57
2022/07/31 01:28:41;;;;;;;2.75;1.72;;;;;;;17.07;92.69;98006.75;1617066;88;25508;-56
2022/07/31 01:31:11;;;;;;;1.82;1.70;;;;;;;17.03;92.68;98001.72;1617426;88;27393;-57
2022/07/31 01:33:48;;;;;;;2.60;1.55;;;;;;;16.98;92.91;98013.91;1617408;88;25710;-58
2022/07/31 01:36:19;;;;;;;2.65;1.40;;;;;;;16.99;93.30;98006.42;1617364;88;25672;-58
2022/07/31 01:38:48;;;;;;;;;;;;;;;16.86;94.09;98014.13;1619402;88;25712;-57
2022/07/31 01:41:17;;;;;;;1.22;1.00;;;;;;;16.82;93.88;98016.85;1617373;88;25452;-58
2022/07/31 01:43:47;;;;;;;1.30;1.05;;;;;;;16.82;93.79;98021.00;1617027;88;27523;-57
2022/07/31 01:46:16;;;;;;;1.05;0.95;;;;;;;16.84;93.85;98020.63;1617037;88;25693;-58
2022/07/31 01:48:44;;;;;;;2.55;1.10;;;;;;;16.78;93.83;98015.41;1617356;88;25795;-58
2022/07/31 01:51:13;;;;;;;1.70;0.68;;;;;;;16.75;93.75;98017.53;1617190;88;26539;-58
2022/07/31 01:53:43;;;;;;;0.88;0.88;;;;;;;16.76;93.85;98018.34;1617437;88;25731;-58
2022/07/31 01:56:10;;;;;;;0.80;0.80;;;;;;;16.77;93.85;98015.20;1617485;88;27433;-57
2022/07/31 01:58:40;;;;;;;0.65;0.60;;;;;;;16.76;94.02;98018.34;1616941;88;25633;-57
2022/07/31 02:01:08;;;;;;;0.93;0.70;;;;;;;16.73;93.84;98022.66;1617156;88;25667;-57
2022/07/31 02:03:36;;;;;;;0.60;0.60;;;;;;;16.70;93.78;98022.01;1618203;88;25914;-58
2022/07/31 02:06:03;;;;;;;1.40;0.68;;;;;;;16.69;93.80;98016.24;1617031;88;25503;-57
2022/07/31 02:08:31;;;;;;;0.60;0.60;;;;;;;16.66;93.77;98017.79;1616732;88;27513;-58
2022/07/31 02:11:00;;;;;;;1.32;0.50;;;;;;;16.63;94.05;98017.15;1616758;88;25456;-58
2022/07/31 02:13:28;;;;;;;0.47;0.47;;;;;;;16.66;94.13;98018.37;1616743;88;25720;-58
2022/07/31 02:15:57;;;;;;;0.45;0.45;;;;;;;16.66;93.80;98015.60;1616956;88;25759;-58
2022/07/31 02:18:25;;;;;;;0.80;0.53;;;;;;;16.63;93.65;98010.23;1616422;88;25648;-57
2022/07/31 02:20:52;;;;;;;0.60;0.50;;;;;;;16.64;93.98;98011.82;1616737;88;28268;-57
2022/07/31 02:23:19;;;;;;;0.40;0.40;;;;;;;16.58;94.00;98013.30;1616580;88;25651;-58
2022/07/31 02:25:47;;;;;;;0.35;0.30;;;;;;;16.56;93.68;98010.91;1616981;88;25470;-58
2022/07/31 02:28:19;;;;;;;0.95;0.30;;;;;;;16.53;93.69;98010.26;1616707;88;26651;-58
2022/07/31 02:30:47;;;;;;;0.30;0.30;;;;;;;16.50;93.72;98014.37;1616581;88;25616;-58
2022/07/31 02:33:21;;;;;;;1.20;0.30;;;;;;;16.48;93.70;98008.39;1616708;88;27516;-58
2022/07/31 02:35:52;;;;;;;0.30;0.30;;;;;;;16.47;93.76;98017.88;1616740;88;25937;-58
2022/07/31 02:38:22;;;;;;;0.37;0.30;;;;;;;16.43;93.71;98012.27;1617021;88;25681;-58
2022/07/31 02:40:52;;;;;;;0.75;0.53;;;;;;;16.41;93.71;98012.64;1616743;88;25801;-58
2022/07/31 02:43:20;;;;;;;0.83;0.40;;;;;;;16.38;94.03;98012.59;1616859;88;25704;-58
2022/07/31 02:45:47;;;;;;;0.55;0.20;;;;;;;16.37;94.15;98005.45;1616725;88;27671;-58
2022/07/31 02:48:13;;;;;;;0.72;0.30;;;;;;;16.33;93.98;98013.70;1615606;88;25719;-58
2022/07/31 02:50:41;;;;;;;0.68;0.30;;;;;;;16.31;93.85;98011.87;1616705;88;25632;-58
2022/07/31 02:53:08;;;;;;;0.90;0.30;;;;;;;16.25;94.09;98012.77;1616781;88;25794;-58
2022/07/31 02:55:35;;;;;;;0.20;0.20;;;;;;;16.25;94.16;98019.69;1616385;88;25506;-58
2022/07/31 02:58:02;;;;;;;0.33;0.30;;;;;;;16.25;94.17;98011.97;1616818;88;27462;-61
2022/07/31 03:00:29;;;;;;;0.60;0.30;;;;;;;16.21;94.14;98013.88;1616732;88;25511;-61
2022/07/31 03:02:57;;;;;;;0.37;0.37;;;;;;;16.17;94.24;98009.08;1616401;88;25442;-61
2022/07/31 03:05:24;;;;;;;0.30;0.30;;;;;;;16.19;94.29;98017.00;1617088;88;25935;-61
2022/07/31 03:07:50;;;;;;;0.40;0.40;;;;;;;16.20;94.46;98021.95;1618697;88;25466;-61
2022/07/31 03:10:16;;;;;;;0.57;0.30;;;;;;;16.21;94.53;98029.89;1618702;88;27437;-61
2022/07/31 03:12:47;;;;;;;0.40;0.37;;;;;;;16.14;94.64;98026.97;1619121;88;25475;-61
2022/07/31 03:15:17;;;;;;;0.42;0.42;;;;;;;16.09;94.54;98035.58;1618706;88;25482;-61
2022/07/31 03:17:45;;;;;;;2.72;0.40;;;;;;;16.03;94.39;98033.10;1619035;88;25798;-61
2022/07/31 03:20:14;;;;;;;0.40;0.40;;;;;;;16.02;94.20;98034.85;1619032;88;25525;-60
2022/07/31 03:22:42;;;;;;;0.40;0.40;;;;;;;15.99;94.28;98031.44;1618652;88;27397;-61
2022/07/31 03:25:10;;;;;;;1.22;0.50;;;;;;;15.92;94.28;98041.16;1618462;88;25719;-61
2022/07/31 03:27:37;;;;;;;0.60;0.60;;;;;;;15.89;94.45;98037.73;1618752;88;25547;-61
2022/07/31 03:30:06;;;;;;;0.45;0.45;;;;;;;15.83;94.80;98040.58;1618658;88;25746;-62
2022/07/31 03:32:34;;;;;;;0.65;0.65;;;;;;;15.80;94.64;98039.35;1618718;88;25656;-61
2022/07/31 03:35:00;;;;;;;0.50;0.50;;;;;;;15.78;94.58;98040.89;1618400;88;26250;-60
2022/07/31 03:37:26;;;;;;;0.65;0.60;;;;;;;15.72;94.39;98040.96;1618659;88;25783;-61
2022/07/31 03:39:53;;;;;;;1.87;0.70;;;;;;;15.64;94.39;98044.97;1618527;88;25757;-61
2022/07/31 03:42:20;;;;;;;0.72;0.62;;;;;;;15.59;94.39;98044.43;1618670;88;25809;-61
2022/07/31 03:44:47;;;;;;;0.60;0.60;;;;;;;15.58;94.53;98050.55;1618249;88;25520;-61
2022/07/31 03:47:14;;;;;;;0.90;0.68;;;;;;;15.57;94.68;98052.30;1618689;88;27553;-61
2022/07/31 03:49:40;;;;;;;1.00;0.70;;;;;;;15.53;95.12;98052.21;1618357;88;25663;-61
2022/07/31 03:52:07;;;;;;;1.65;0.80;;;;;;;15.52;95.05;98053.38;1618648;88;25785;-61
2022/07/31 03:54:33;;;;;;;0.70;0.70;;;;;;;15.49;95.16;98056.87;1618561;88;25825;-61
2022/07/31 03:57:00;;;;;;;0.70;0.70;;;;;;;15.46;95.18;98054.26;1619135;88;25462;-61
2022/07/31 03:59:27;;;;;;;0.70;0.70;;;;;;;15.47;95.25;98064.70;1618217;88;27496;-61
2022/07/31 04:01:54;;;;;;;0.70;0.60;;;;;;;15.46;95.33;98063.11;1618558;88;25829;-61
2022/07/31 04:04:20;;;;;;;1.12;0.62;;;;;;;15.42;95.28;98052.79;1618693;88;25735;-61
2022/07/31 04:06:46;;;;;;;0.60;0.55;;;;;;;15.42;95.52;98053.36;1617265;88;25700;-61
2022/07/31 04:09:12;;;;;;;1.45;0.70;;;;;;;15.41;95.87;98060.86;1616961;88;25661;-60
2022/07/31 04:11:38;;;;;;;0.75;0.70;;;;;;;15.41;95.85;98058.10;1616823;87;27464;-61
2022/07/31 04:14:04;;;;;;;0.82;0.75;;;;;;;15.40;95.77;98063.38;1647799;86;25943;-61
2022/07/31 04:16:31;;;;;;;0.98;0.90;;;;;;;15.41;95.69;98065.58;1635758;87;25716;-61
2022/07/31 04:18:57;;;;;;;0.65;0.65;;;;;;;15.42;95.82;98063.02;1611539;89;25756;-61
2022/07/31 04:21:23;;;;;;;1.35;0.80;;;;;;;15.45;95.69;98068.42;1611501;89;25734;-61
2022/07/31 04:23:49;;;;;;;0.70;0.70;;;;;;;15.45;95.72;98063.69;1611658;89;27453;-61
2022/07/31 04:26:15;;;;;;;0.70;0.70;;;;;;;15.45;95.57;98071.19;1611902;89;25764;-61
2022/07/31 04:28:41;;;;;;;2.35;0.70;;;;;;;15.45;95.50;98068.42;1611954;89;25690;-61
2022/07/31 04:31:07;;;;;;;2.05;0.70;;;;;;;15.47;95.41;98068.84;1612210;89;26410;-60
2022/07/31 04:33:33;;;;;;;0.80;0.80;;;;;;;15.48;95.35;98069.05;1611482;89;25711;-60
2022/07/31 04:35:59;;;;;;;0.70;0.70;;;;;;;15.48;95.19;98081.48;1611817;89;27522;-61
2022/07/31 04:38:26;;;;;;;0.70;0.70;;;;;;;15.40;95.47;98073.05;1611604;89;25934;-61
2022/07/31 04:40:52;;;;;;;0.80;0.70;;;;;;;15.40;95.44;98075.80;1611675;89;25781;-61
2022/07/31 04:43:19;;;;;;;0.78;0.70;;;;;;;15.42;95.43;98080.97;1611626;89;25775;-62
2022/07/31 04:45:45;;;;;;;1.07;0.75;;;;;;;15.40;95.32;98086.07;1608346;89;25783;-62
2022/07/31 04:48:12;;;;;;;1.17;0.80;;;;;;;15.38;95.37;98089.19;1611652;89;27442;-62
2022/07/31 04:50:38;;;;;;;0.90;0.80;;;;;;;15.33;95.32;98087.27;1611541;89;25844;-62
2022/07/31 04:53:05;;;;;;;0.90;0.90;;;;;;;15.31;95.48;98083.48;1611758;89;25822;-62
2022/07/31 04:55:31;;;;;;;0.82;0.82;;;;;;;15.34;95.47;98088.28;1611916;89;25953;-62
2022/07/31 04:57:57;;;;;;;0.90;0.90;;;;;;;15.32;95.46;98093.39;1611851;89;25706;-61
2022/07/31 05:00:23;;;;;;;1.85;0.88;;;;;;;15.33;95.53;98095.55;1611487;89;27480;-61
2022/07/31 05:02:50;;;;;;;1.40;1.20;;;;;;;15.32;95.64;98098.09;1611833;89;25876;-61
2022/07/31 05:05:17;;;;;;;1.45;0.90;;;;;;;15.32;95.41;98104.43;1611526;89;25739;-61
2022/07/31 05:07:45;;;;;;;1.15;0.90;;;;;;;15.26;95.05;98099.75;1611829;89;26105;-61
2022/07/31 05:11:21;;;;;;;1.40;1.10;;;;;;;15.27;95.23;98114.36;1611397;89;25753;-61
2022/07/31 05:12:39;;;;;;;1.82;1.02;;;;;;;15.20;94.80;98116.95;1609649;89;25912;-62
2022/07/31 05:15:07;;;;;;;1.35;1.25;;;;;;;15.15;95.26;98131.26;1612572;89;25740;-61
2022/07/31 05:17:34;;;;;;;1.12;1.02;;;;;;;15.12;95.02;98128.41;1612727;89;25652;-62
2022/07/31 05:20:00;;;;;;;2.55;1.40;;;;;;;15.08;95.15;98125.55;1612438;89;27868;-61
2022/07/31 05:22:26;;;;;;;2.02;1.30;;;;;;;15.05;95.32;98131.20;1612504;89;25543;-62
2022/07/31 05:24:52;;;;;;;1.95;1.50;;;;;;;15.05;95.14;98131.20;1612449;89;29531;-62
2022/07/31 05:27:19;;;;;;;2.35;1.32;;;;;;;15.02;95.25;98124.21;1612491;89;26030;-61
2022/07/31 05:29:45;;;;;;;2.72;1.50;;;;;;;15.03;94.97;98130.75;1612692;89;25501;-61
2022/07/31 05:32:11;;;;;;;3.15;1.70;;;;;;;15.03;94.97;98130.75;1612767;89;25931;-61
2022/07/31 05:34:38;;;;;;;1.42;1.32;;;;;;;14.98;94.90;98136.56;1612895;89;25622;-61
2022/07/31 05:37:04;;;;;;;1.87;1.50;;;;;;;14.97;94.79;98134.16;1612639;89;27521;-61
2022/07/31 05:39:30;;;;;;;1.87;1.50;;;;;;;14.93;95.04;98140.38;1594508;89;25588;-61
2022/07/31 05:41:57;;;;;;;1.90;1.80;;;;;;;14.93;95.04;98140.38;1612464;89;25704;-61
2022/07/31 05:44:23;;;;;;;2.52;1.47;;;;;;;14.89;94.99;98142.83;1612453;89;25749;-61
2022/07/31 05:46:50;;;;;;;3.20;1.70;;;;;;;14.91;95.18;98139.14;1609031;89;26489;-61
2022/07/31 05:49:16;;;;;;;1.98;1.67;;;;;;;14.91;95.12;98150.96;1613065;89;27560;-61
2022/07/31 05:51:44;;;;;;;1.70;1.60;;;;;;;14.92;95.18;98154.53;1612542;89;25700;-61
2022/07/31 05:54:11;;;;;;;2.00;1.80;;;;;;;14.92;94.99;98158.10;1612590;89;25718;-61
2022/07/31 05:56:37;;;;;;;2.12;1.80;;;;;;;14.92;94.89;98160.86;1612985;89;25967;-61
2022/07/31 05:59:03;;;;;;;2.90;1.72;;;;;;;14.94;94.96;98159.09;1612944;89;25648;-61
2022/07/31 06:01:29;;;;;;;2.20;1.90;;;;;;;14.96;95.00;98165.64;1612875;89;28439;-61
2022/07/31 06:03:55;;;;;;;3.15;1.92;;;;;;;14.94;95.20;98164.61;1612849;89;25523;-61
2022/07/31 06:06:21;;;;;;;3.45;1.85;;;;;;;14.92;95.08;98169.70;1613304;88;25464;-62
2022/07/31 06:08:48;;;;;;;2.30;2.10;;;;;;;14.90;94.93;98172.01;1614022;88;25944;-63
2022/07/31 06:11:14;;;;;;;2.52;1.30;;;;;;;14.90;95.19;98165.11;1614689;88;25512;-62
2022/07/31 06:13:42;;;;;;;4.95;1.80;;;;;;;14.88;95.50;98163.30;1614667;88;27474;-62
2022/07/31 06:16:13;;;;;;;2.87;1.72;;;;;;;14.89;95.36;98177.31;1614571;88;25618;-62
2022/07/31 06:18:41;;;;;;;2.62;1.70;;;;;;;14.88;95.34;98175.12;1614776;88;25516;-63
2022/07/31 06:21:07;;;;;;;1.70;1.55;;;;;;;14.85;95.21;98178.59;1614513;88;25752;-62
2022/07/31 06:23:34;;;;;;;1.70;1.60;;;;;;;14.81;95.21;98179.08;1614526;88;25687;-62
2022/07/31 06:26:00;;;;;;;1.67;1.50;;;;;;;14.83;95.05;98184.24;1614270;88;27484;-62
2022/07/31 06:28:27;;;;;;;2.58;1.67;;;;;;;14.78;94.75;98175.08;1614370;88;25830;-62
2022/07/31 06:30:53;;;;;;;1.95;1.75;;;;;;;14.78;94.75;98175.08;1614339;88;25699;-62
2022/07/31 06:33:19;;;;;;;1.80;1.70;;;;;;;14.85;95.00;98193.76;1611980;88;25700;-63
2022/07/31 06:35:46;;;;;;;2.15;1.67;;;;;;;14.84;94.44;98189.41;1614582;88;25682;-62
2022/07/31 06:38:12;;;;;;;4.72;2.95;;;;;;;14.82;94.06;98198.61;1614248;88;28230;-62
2022/07/31 06:40:38;;;;;;;1.80;1.70;;;;;;;14.82;94.29;98196.44;1614748;88;25531;-62
2022/07/31 06:43:04;;;;;;;1.98;1.75;;;;;;;14.83;93.75;98188.38;1613024;88;25744;-62
2022/07/31 06:45:30;;;;;;;2.10;1.47;;;;;;;14.78;93.89;98201.82;1613520;88;25820;-61
2022/07/31 06:47:56;;;;;;;3.47;1.80;;;;;;;14.72;93.51;98200.47;1614571;88;25712;-61
2022/07/31 06:50:23;;;;;;;1.92;1.70;;;;;;;14.70;94.10;98195.88;1614659;88;27498;-61
2022/07/31 06:52:49;;;;;;;2.67;1.80;;;;;;;14.64;93.62;98207.75;1613682;88;25471;-61
2022/07/31 06:55:15;;;;;;;1.67;1.50;;;;;;;14.60;93.70;98192.50;1613855;88;25517;-62
2022/07/31 06:57:41;;;;;;;2.70;1.80;;;;;;;14.60;93.73;98187.56;1613740;88;25778;-62
2022/07/31 07:00:09;;;;;;;2.60;1.67;;;;;;;14.64;93.81;98198.91;1614919;88;25688;-62
2022/07/31 07:02:36;;;;;;;1.90;1.47;;;;;;;14.65;93.47;98201.88;1614483;88;27403;-62
2022/07/31 07:05:03;;;;;;;2.75;1.70;;;;;;;14.68;93.89;98198.98;1613289;88;25737;-62
2022/07/31 07:07:30;;;;;;;3.55;2.05;;;;;;;14.64;93.68;98196.72;1613275;88;25702;-63
2022/07/31 07:09:56;;;;;;;3.52;1.50;;;;;;;14.60;93.91;98193.08;1612936;88;25763;-63
2022/07/31 07:12:22;;;;;;;3.52;2.17;;;;;;;14.56;93.76;98203.98;1608762;89;25661;-63
2022/07/31 07:14:48;;;;;;;2.80;1.67;;;;;;;14.49;93.68;98200.48;1612090;89;27513;-62
2022/07/31 07:17:15;;;;;;;2.60;1.70;;;;;;;14.49;93.68;98200.48;1612458;89;25777;-61
2022/07/31 07:19:42;;;;;;;1.60;1.50;;;;;;;14.51;93.65;98202.29;1612585;89;25736;-61
2022/07/31 07:22:08;;;;;;;1.70;1.50;;;;;;;14.49;93.97;98208.75;1612817;89;25748;-61
2022/07/31 07:24:34;;;;;;;1.87;1.60;;;;;;;14.49;93.72;98199.66;1612329;89;25742;-61
2022/07/31 07:27:01;;;;;;;2.50;1.60;;;;;;;14.48;93.86;98201.61;1611991;89;27472;-61
2022/07/31 07:29:27;;;;;;;2.17;1.40;;;;;;;14.46;94.06;98193.48;1612293;89;25740;-60
2022/07/31 07:31:53;;;;;;;1.98;1.57;;;;;;;14.51;94.61;98194.61;1612660;89;25808;-61
2022/07/31 07:34:20;;;;;;;2.02;1.57;;;;;;;14.54;94.60;98192.53;1612075;89;25753;-60
2022/07/31 07:36:46;;;;;;;2.30;1.60;;;;;;;14.55;94.69;98199.64;1612552;89;25700;-59
2022/07/31 07:39:12;;;;;;;2.08;1.77;;;;;;;14.52;94.32;98212.19;1612202;89;27492;-60
2022/07/31 07:41:40;;;;;;;3.05;1.98;;;;;;;14.53;94.25;98197.23;1612556;89;26012;-60
2022/07/31 07:44:06;;;;;;;1.87;1.70;;;;;;;14.55;94.33;98210.10;1612266;89;25967;-60
2022/07/31 07:46:33;;;;;;;1.98;1.72;;;;;;;14.57;94.08;98210.32;1612283;89;25801;-60
2022/07/31 07:49:01;;;;;;;2.10;1.80;;;;;;;14.54;94.10;98195.29;1612311;89;25653;-60
2022/07/31 07:51:27;;;;;;;2.90;1.90;;;;;;;14.59;94.15;98212.16;1612511;89;28271;-60
2022/07/31 07:53:54;;;;;;;1.92;1.72;;;;;;;14.61;94.28;98220.86;1612334;89;25699;-60
2022/07/31 07:56:20;;;;;;;3.55;1.65;;;;;;;14.63;94.10;98226.84;1612712;89;25718;-60
2022/07/31 07:58:48;;;;;;;3.62;1.50;;;;;;;14.58;93.93;98218.23;1612733;89;25944;-60
2022/07/31 08:01:15;;;;;;;1.95;1.82;;;;;;;14.59;94.65;98203.89;1612525;89;25476;-61
2022/07/31 08:03:41;;;;;;;3.70;1.87;;;;;;;14.59;94.65;98203.89;1612558;89;27553;-61
2022/07/31 08:06:07;;;;;;;1.87;1.75;;;;;;;14.72;94.61;98213.70;1612114;89;25475;-61
2022/07/31 08:08:34;;;;;;;2.45;2.02;;;;;;;14.73;94.32;98208.96;1614020;88;25522;-60
2022/07/31 08:11:02;;;;;;;3.17;2.20;;;;;;;14.83;94.75;98215.40;1614677;88;25796;-59
2022/07/31 08:13:28;;;;;;;2.62;2.42;;;;;;;14.87;94.81;98207.20;1612221;88;25660;-60
2022/07/31 08:15:54;;;;;;;2.17;1.90;;;;;;;14.86;93.88;98218.02;1612066;88;28416;-60
2022/07/31 08:18:20;;;;;;;2.40;2.08;;;;;;;14.84;94.36;98211.47;1613749;88;26790;-60
2022/07/31 08:20:47;;;;;;;2.17;2.00;;;;;;;14.91;94.28;98219.93;1614179;88;25701;-59
2022/07/31 08:23:13;;;;;;;2.60;2.40;;;;;;;14.95;94.29;98218.66;1613368;88;25720;-59
2022/07/31 08:25:40;;;;;;;2.40;2.15;;;;;;;15.00;94.22;98217.00;1613568;88;25692;-59
2022/07/31 08:28:06;;;;;;;4.08;2.50;;;;;;;15.04;94.15;98217.10;1614506;88;28064;-59
2022/07/31 08:30:32;;;;;;;2.80;2.40;;;;;;;15.10;94.20;98223.16;1613445;88;25732;-59
2022/07/31 08:32:59;;;;;;;2.83;2.50;;;;;;;15.11;93.83;98222.80;1613858;88;25653;-60
2022/07/31 08:35:25;;;;;;;2.72;2.35;;;;;;;15.07;94.06;98214.20;1613903;88;25812;-60
2022/07/31 08:37:52;;;;;;;3.20;2.72;;;;;;;15.08;94.57;98216.61;1613625;88;25653;-62
2022/07/31 08:40:19;;;;;;;2.47;2.25;;;;;;;15.11;94.07;98217.28;1614446;88;27438;-61
2022/07/31 08:42:46;;;;;;;2.95;2.65;;;;;;;15.12;94.02;98209.81;1614018;88;25732;-61
2022/07/31 08:45:14;;;;;;;3.70;2.42;;;;;;;15.10;94.09;98213.49;1614278;88;25644;-62
2022/07/31 08:47:44;;;;;;;3.25;2.33;;;;;;;15.10;94.26;98214.30;1613700;88;26725;-61
2022/07/31 08:50:14;;;;;;;5.10;3.08;;;;;;;15.09;93.37;98218.80;1613460;88;32267;-61
2022/07/31 08:52:44;;;;;;;4.10;2.55;;;;;;;15.08;93.59;98222.73;1614217;88;28533;-61
2022/07/31 08:55:12;;;;;;;2.85;2.42;;;;;;;15.07;93.55;98220.53;1614016;88;25523;-63
2022/07/31 08:57:38;;;;;;;6.17;2.70;;;;;;;15.03;93.14;98223.19;1614030;88;25611;-62
2022/07/31 09:00:09;;;;;;;2.92;2.62;;;;;;;15.00;93.49;98216.22;1614416;88;25766;-64
2022/07/31 09:02:38;;;;;;;4.03;3.17;;;;;;;14.96;93.93;98213.35;1614609;88;25605;-62
2022/07/31 09:05:06;;;;;;;5.45;3.67;;;;;;;14.87;93.83;98216.85;1614341;88;27399;-63
2022/07/31 09:07:32;;;;;;;4.35;3.75;;;;;;;14.84;94.21;98218.37;1613353;88;25740;-62
2022/07/31 09:09:59;;;;;;;3.87;3.58;;;;;;;14.84;94.82;98223.08;1612510;89;25708;-63
2022/07/31 09:12:31;;;;;;;3.95;3.65;;;;;;;14.82;94.80;98211.02;1608629;88;26141;-62
2022/07/31 09:14:58;;;;;;;5.40;3.77;;;;;;;14.83;94.63;98218.72;1612479;89;25646;-62
2022/07/31 09:17:35;;;;;;;4.42;3.60;;;;;;;14.78;94.60;98209.56;1612529;89;27451;-62
2022/07/31 09:20:04;;;;;;;4.55;4.00;;;;;;;14.82;95.25;98220.67;1612421;89;25733;-62
2022/07/31 09:22:32;;;;;;;4.25;3.30;;;;;;;14.85;95.11;98222.72;1613015;89;25684;-62
2022/07/31 09:25:15;;;;;;;4.45;3.80;;;;;;;14.87;94.91;98230.08;1612344;89;25962;-62
2022/07/31 09:27:41;;;;;;;4.08;3.58;;;;;;;14.88;95.27;98226.75;1611216;88;25645;-63
2022/07/31 09:30:11;;;;;;;4.45;3.70;;;;;;;14.88;95.27;98226.75;1612514;89;27403;-63
2022/07/31 09:32:37;;;;;;;4.75;3.47;;;;;;;14.90;95.37;98230.75;1612647;89;25820;-63
2022/07/31 09:35:14;;;;;;;4.62;3.22;;;;;;;14.88;95.36;98212.36;1612569;89;25454;-62
2022/07/31 09:37:43;;;;;;;3.80;3.02;;;;;;;14.91;95.56;98225.45;1613187;89;26868;-62
2022/07/31 09:40:10;;;;;;;4.00;3.20;;;;;;;14.86;95.56;98212.50;1612492;88;25625;-62
2022/07/31 09:42:44;;;;;;;4.05;3.65;;;;;;;14.86;95.56;98212.50;1612667;89;27383;-63
2022/07/31 09:45:20;;;;;;;5.20;3.20;;;;;;;14.88;95.51;98226.16;1612331;89;25503;-62
2022/07/31 09:48:02;;;;;;;4.47;3.35;;;;;;;14.87;95.61;98227.32;1612760;89;25656;-63
2022/07/31 09:50:29;;;;;;;4.47;3.70;;;;;;;14.85;95.86;98219.18;1612403;89;25804;-63
2022/07/31 09:53:00;;;;;;;4.47;3.60;;;;;;;14.85;96.20;98219.18;1612693;89;25647;-63
2022/07/31 09:55:28;;;;;;;4.70;4.10;;;;;;;14.85;96.25;98228.23;1611641;89;27514;-62
2022/07/31 09:57:58;;;;;;;5.03;3.20;;;;;;;14.87;96.33;98229.27;1612465;89;25844;-63
2022/07/31 10:00:27;;;;;;;3.43;3.13;;;;;;;14.90;96.33;98226.62;1612888;89;25656;-63
2022/07/31 10:02:55;;;;;;;3.92;3.47;;;;;;;14.95;96.46;98226.13;1612707;89;25666;-63
2022/07/31 10:05:27;;;;;;;4.40;3.80;;;;;;;14.95;96.46;98226.13;1612428;89;25681;-62
2022/07/31 10:07:59;;;;;;;4.25;3.37;;;;;;;14.97;96.53;98231.50;1612843;88;27403;-63
2022/07/31 10:10:26;;;;;;;4.87;3.75;;;;;;;14.98;96.32;98223.47;1614216;88;25644;-63
2022/07/31 10:12:55;;;;;;;4.70;3.50;;;;;;;14.98;96.09;98230.94;1613963;88;25464;-63
2022/07/31 10:15:24;;;;;;;4.85;3.70;;;;;;;15.02;96.46;98222.16;1613902;88;25687;-63
2022/07/31 10:17:52;;;;;;;4.35;3.65;;;;;;;15.03;96.56;98236.20;1612489;88;25739;-64
2022/07/31 10:20:23;;;;;;;4.10;3.70;;;;;;;15.07;96.68;98234.33;1611939;88;28004;-63
2022/07/31 10:23:10;;;;;;;4.20;3.80;;;;;;;15.09;96.90;98231.22;1614359;88;25597;-63
2022/07/31 10:25:42;;;;;;;3.77;3.40;;;;;;;15.08;96.96;98238.69;1613613;88;25664;-63
2022/07/31 10:28:10;;;;;;;3.72;3.33;;;;;;;15.12;96.54;98236.84;1613935;88;27111;-63
2022/07/31 10:30:37;;;;;;;5.53;3.70;;;;;;;15.13;96.86;98237.62;1614201;88;25581;-62
2022/07/31 10:33:07;;;;;;;3.98;3.58;;;;;;;15.13;96.81;98241.20;1612984;88;27727;-62
2022/07/31 10:35:42;;;;;;;4.40;3.90;;;;;;;15.14;97.13;98237.86;1614245;88;25639;-63
2022/07/31 10:38:32;;;;;;;5.53;3.95;;;;;;;15.16;97.30;98238.30;1614324;88;25486;-63
2022/07/31 10:41:04;;;;;;;4.65;4.25;;;;;;;15.18;97.68;98239.56;1608423;88;25714;-63
2022/07/31 10:43:38;;;;;;;5.20;4.30;;;;;;;15.23;97.42;98236.31;1610261;88;25699;-62
2022/07/31 10:46:06;;;;;;;4.10;3.70;;;;;;;15.28;97.22;98247.06;1614549;88;27382;-62
2022/07/31 10:48:32;;;;;;;4.72;3.67;;;;;;;15.30;97.22;98251.09;1614045;88;25478;-62
2022/07/31 10:51:08;;;;;;;4.53;4.12;;;;;;;15.34;97.07;98255.30;1613723;88;25681;-62
2022/07/31 10:53:35;;;;;;;4.50;3.65;;;;;;;15.39;97.67;98257.00;1613961;88;25697;-62
2022/07/31 10:56:12;;;;;;;4.47;4.08;;;;;;;15.42;96.92;98254.91;1596358;88;25676;-63
2022/07/31 10:58:34;;;;;;;5.15;4.17;;;;;;;15.45;96.73;98260.31;1608418;88;26020;-62
2022/07/31 11:01:07;;;;;;;5.05;4.45;;;;;;;15.48;96.63;98258.20;1612587;88;25498;-62
2022/07/31 11:03:45;;;;;;;6.28;4.05;;;;;;;15.47;96.46;98255.22;1614280;88;25533;-62
2022/07/31 11:06:15;;;;;;;4.47;4.08;;;;;;;15.45;96.33;98258.94;1614001;88;25748;-63
2022/07/31 11:08:48;;;;;;;4.72;4.10;;;;;;;15.45;96.59;98257.56;1613469;88;25729;-62
2022/07/31 11:11:15;;;;;;;4.97;4.33;;;;;;;15.47;96.16;98257.98;1611763;88;27476;-62
2022/07/31 11:13:51;;;;;;;4.37;3.90;;;;;;;15.47;96.24;98257.41;1612563;89;25751;-62
2022/07/31 11:16:19;;;;;;;5.80;4.28;;;;;;;15.46;96.25;98261.34;1610905;89;25533;-61
2022/07/31 11:19:01;;;;;;;5.42;4.10;;;;;;;15.46;96.04;98266.86;1610915;89;26187;-61
2022/07/31 11:21:35;;;;;;;5.62;4.15;;;;;;;15.49;96.32;98271.64;1611386;89;25744;-61
2022/07/31 11:24:21;;;;;;;5.12;4.12;;;;;;;15.51;96.20;98273.48;1612657;89;27528;-62
2022/07/31 11:26:58;;;;;;;5.30;4.28;;;;;;;15.54;96.45;98267.81;1612540;89;25846;-61
2022/07/31 11:29:37;;;;;;;5.17;4.40;;;;;;;15.52;96.42;98266.79;1612484;89;25442;-61
2022/07/31 11:32:13;;;;;;;5.03;4.42;;;;;;;15.54;96.50;98265.87;1612397;89;26714;-61
2022/07/31 11:34:52;;;;;;;6.17;3.98;;;;;;;15.59;96.61;98272.27;1612285;89;25722;-61
2022/07/31 11:37:23;;;;;;;5.25;3.55;;;;;;;15.66;96.83;98271.87;1612504;89;27336;-61
2022/07/31 11:39:52;;;;;;;4.37;3.98;;;;;;;15.71;96.51;98273.56;1611526;89;25442;-62